createdAt,value
2018-08-10T00:00:46.021Z,16.33
2018-08-10T00:03:15.618Z,16.35
2018-08-10T00:05:44.447Z,16.30
2018-08-10T00:08:13.736Z,16.30
2018-08-10T00:10:42.893Z,16.17
2018-08-10T00:13:12.511Z,16.21
2018-08-10T00:15:43.525Z,16.15
2018-08-10T00:18:12.867Z,16.06
2018-08-10T00:20:42.451Z,16.04
2018-08-10T00:23:12.543Z,16.03
2018-08-10T00:25:42.174Z,15.87
2018-08-10T00:28:11.977Z,15.81
2018-08-10T00:30:42.176Z,15.83
2018-08-10T00:33:12.681Z,15.78
2018-08-10T00:35:42.968Z,15.72
2018-08-10T00:38:12.792Z,15.66
2018-08-10T00:40:42.158Z,15.63
2018-08-10T00:43:12.026Z,15.68
2018-08-10T00:45:41.972Z,15.68
2018-08-10T00:48:11.126Z,15.56
2018-08-10T00:50:40.871Z,15.59
2018-08-10T00:53:10.547Z,15.66
2018-08-10T00:55:40.460Z,15.58
2018-08-10T00:58:10.606Z,15.59
2018-08-10T01:00:40.419Z,15.56
2018-08-10T01:03:09.474Z,15.47
2018-08-10T01:05:39.795Z,15.39
2018-08-10T01:08:10.937Z,15.42
2018-08-10T01:10:41.780Z,15.44
2018-08-10T01:13:12.311Z,15.43
2018-08-10T01:15:42.524Z,15.15
2018-08-10T01:18:13.845Z,15.38
2018-08-10T01:20:42.666Z,15.35
2018-08-10T01:23:12.388Z,15.36
2018-08-10T01:25:42.822Z,15.35
2018-08-10T01:28:12.601Z,15.33
2018-08-10T01:30:41.737Z,15.29
2018-08-10T01:33:11.648Z,15.20
2018-08-10T01:35:40.655Z,15.15
2018-08-10T01:38:09.361Z,15.21
2018-08-10T01:40:38.357Z,15.09
2018-08-10T01:43:07.279Z,15.35
2018-08-10T01:45:36.682Z,15.33
2018-08-10T01:48:05.575Z,15.37
2018-08-10T01:50:34.433Z,15.45
2018-08-10T01:53:03.336Z,15.44
2018-08-10T01:55:32.249Z,15.61
2018-08-10T01:58:01.068Z,15.57
2018-08-10T02:00:29.683Z,15.84
2018-08-10T02:02:58.919Z,15.98
2018-08-10T02:05:27.489Z,16.11
2018-08-10T02:07:56.095Z,15.65
2018-08-10T02:10:25.728Z,15.81
2018-08-10T02:12:56.699Z,16.09
2018-08-10T02:15:25.291Z,16.23
2018-08-10T02:17:54.080Z,16.31
2018-08-10T02:20:24.281Z,16.24
2018-08-10T02:22:53.071Z,16.05
2018-08-10T02:25:22.917Z,16.24
2018-08-10T02:27:52.284Z,16.14
2018-08-10T02:30:22.519Z,16.00
2018-08-10T02:32:51.759Z,16.04
2018-08-10T02:35:21.369Z,16.01
2018-08-10T02:37:50.065Z,15.69
2018-08-10T02:40:20.586Z,15.46
2018-08-10T02:42:49.857Z,15.55
2018-08-10T02:45:18.495Z,15.53
2018-08-10T02:47:47.607Z,15.56
2018-08-10T02:50:16.315Z,15.49
2018-08-10T02:52:45.143Z,15.68
2018-08-10T02:55:14.444Z,15.78
2018-08-10T02:57:43.550Z,15.32
2018-08-10T03:00:15.440Z,15.05
2018-08-10T03:02:44.491Z,15.27
2018-08-10T03:05:13.108Z,15.11
2018-08-10T03:07:42.360Z,15.17
2018-08-10T03:10:12.097Z,15.12
2018-08-10T03:12:40.568Z,15.01
2018-08-10T03:15:12.283Z,15.05
2018-08-10T03:17:40.963Z,15.22
2018-08-10T03:20:09.921Z,15.15
2018-08-10T03:22:38.460Z,15.22
2018-08-10T03:25:08.001Z,15.35
2018-08-10T03:27:36.569Z,15.42
2018-08-10T03:30:06.674Z,15.51
2018-08-10T03:32:35.371Z,15.37
2018-08-10T03:35:04.121Z,15.24
2018-08-10T03:37:32.639Z,15.12
2018-08-10T03:40:01.574Z,15.16
2018-08-10T03:42:32.333Z,15.28
2018-08-10T03:45:01.452Z,15.25
2018-08-10T03:47:29.887Z,15.22
2018-08-10T03:49:58.831Z,15.13
2018-08-10T03:52:27.317Z,15.06
2018-08-10T03:54:56.481Z,14.93
2018-08-10T03:57:25.051Z,14.73
2018-08-10T03:59:54.405Z,14.53
2018-08-10T04:02:22.934Z,14.30
2018-08-10T04:04:51.631Z,14.38
2018-08-10T04:07:20.240Z,14.55
2018-08-10T04:09:50.288Z,14.58
2018-08-10T04:12:18.913Z,14.58
2018-08-10T04:14:47.982Z,14.59
2018-08-10T04:17:22.477Z,14.59
2018-08-10T04:19:52.434Z,14.40
2018-08-10T04:22:21.185Z,14.55
2018-08-10T04:24:50.754Z,14.47
2018-08-10T04:27:20.142Z,14.35
2018-08-10T04:29:49.707Z,14.34
2018-08-10T04:32:18.284Z,14.47
2018-08-10T04:34:46.825Z,14.40
2018-08-10T04:37:15.510Z,14.34
2018-08-10T04:39:44.049Z,14.52
2018-08-10T04:42:12.726Z,14.73
2018-08-10T04:44:41.648Z,14.83
2018-08-10T04:47:10.763Z,14.95
2018-08-10T04:49:39.328Z,15.19
2018-08-10T04:52:07.874Z,15.15
2018-08-10T04:54:36.546Z,15.30
2018-08-10T04:57:05.849Z,15.26
2018-08-10T04:59:34.406Z,14.95
2018-08-10T05:02:02.845Z,15.27
2018-08-10T05:04:31.755Z,14.74
2018-08-10T05:07:00.239Z,14.40
2018-08-10T05:09:28.734Z,14.84
2018-08-10T05:11:57.282Z,14.90
2018-08-10T05:14:25.891Z,14.67
2018-08-10T05:16:54.439Z,14.72
2018-08-10T05:19:22.906Z,14.88
2018-08-10T05:21:51.629Z,16.02
2018-08-10T05:24:20.876Z,15.85
2018-08-10T05:26:49.449Z,16.59
2018-08-10T05:29:18.729Z,16.09
2018-08-10T05:31:48.088Z,15.95
2018-08-10T05:34:17.305Z,16.21
2018-08-10T05:36:45.891Z,16.76
2018-08-10T05:39:14.673Z,17.13
2018-08-10T05:41:43.649Z,17.13
2018-08-10T05:44:12.199Z,17.47
2018-08-10T05:46:40.776Z,17.79
2018-08-10T05:49:09.767Z,17.82
2018-08-10T05:51:38.378Z,18.12
2018-08-10T05:54:07.510Z,17.77
2018-08-10T05:56:36.142Z,18.23
2018-08-10T05:59:04.657Z,18.94
2018-08-10T06:01:34.038Z,19.88
2018-08-10T06:04:02.724Z,19.71
2018-08-10T06:06:31.925Z,20.89
2018-08-10T06:09:02.474Z,21.07
2018-08-10T06:11:31.404Z,21.09
2018-08-10T06:14:00.856Z,20.61
2018-08-10T06:16:30.783Z,20.21
2018-08-10T06:18:59.964Z,21.43
2018-08-10T06:21:29.820Z,22.50
2018-08-10T06:23:59.619Z,21.82
2018-08-10T06:26:29.515Z,21.93
2018-08-10T06:28:59.337Z,21.12
2018-08-10T06:31:28.578Z,20.21
2018-08-10T06:33:58.930Z,21.36
2018-08-10T06:36:28.789Z,21.76
2018-08-10T06:38:58.192Z,22.38
2018-08-10T06:41:27.638Z,22.03
2018-08-10T06:43:57.042Z,21.26
2018-08-10T06:46:26.646Z,20.72
2018-08-10T06:48:56.124Z,20.60
2018-08-10T06:51:25.687Z,21.28
2018-08-10T06:53:54.802Z,20.86
2018-08-10T06:56:25.119Z,21.42
2018-08-10T07:01:40.133Z,21.26
2018-08-10T07:04:09.958Z,21.67
2018-08-10T07:06:39.980Z,21.47
2018-08-10T07:09:11.849Z,22.04
2018-08-10T07:11:40.790Z,21.68
2018-08-10T07:14:10.096Z,22.31
2018-08-10T07:16:38.968Z,20.88
2018-08-10T07:19:08.573Z,22.01
2018-08-10T07:21:38.840Z,23.72
2018-08-10T07:24:08.075Z,22.59
2018-08-10T07:26:37.253Z,22.04
2018-08-10T07:29:06.890Z,21.49
2018-08-10T07:31:35.542Z,22.76
2018-08-10T07:34:05.068Z,22.40
2018-08-10T07:36:33.938Z,21.53
2018-08-10T07:39:03.088Z,20.99
2018-08-10T07:41:31.997Z,20.49
2018-08-10T07:44:03.238Z,20.23
2018-08-10T07:46:34.236Z,21.22
2018-08-10T07:49:04.259Z,20.81
2018-08-10T07:51:33.789Z,20.15
2018-08-10T07:54:02.559Z,20.69
2018-08-10T07:56:32.049Z,22.08
2018-08-10T07:59:01.335Z,22.27
2018-08-10T08:01:31.988Z,22.40
2018-08-10T08:04:01.607Z,24.05
2018-08-10T08:06:31.074Z,24.56
2018-08-10T08:09:00.072Z,23.42
2018-08-10T08:11:30.081Z,21.53
2018-08-10T08:13:58.859Z,21.48
2018-08-10T08:16:28.114Z,20.92
2018-08-10T08:18:57.563Z,21.69
2018-08-10T08:21:26.960Z,22.01
2018-08-10T08:23:55.873Z,21.53
2018-08-10T08:26:24.461Z,21.56
2018-08-10T08:28:52.992Z,22.00
2018-08-10T08:31:21.647Z,21.90
2018-08-10T08:34:02.308Z,22.30
2018-08-10T08:36:30.979Z,24.48
2018-08-10T08:39:26.062Z,25.01
2018-08-10T08:41:54.539Z,25.15
2018-08-10T08:44:35.724Z,25.82
2018-08-10T08:47:05.492Z,25.44
2018-08-10T08:49:34.847Z,26.13
2018-08-10T08:52:03.548Z,25.22
2018-08-10T08:55:14.725Z,23.02
2018-08-10T08:57:43.251Z,21.59
2018-08-10T09:00:14.760Z,22.51
2018-08-10T09:02:44.316Z,23.30
2018-08-10T09:05:12.779Z,24.59
2018-08-10T09:07:41.942Z,25.20
2018-08-10T09:10:12.508Z,23.40
2018-08-10T09:12:41.882Z,23.72
2018-08-10T09:15:13.435Z,24.13
2018-08-10T09:17:42.791Z,25.43
2018-08-10T09:20:12.222Z,25.20
2018-08-10T09:22:40.760Z,24.64
2018-08-10T09:25:12.897Z,25.68
2018-08-10T09:27:41.467Z,25.16
2018-08-10T09:30:12.231Z,24.87
2018-08-10T09:32:42.257Z,24.75
2018-08-10T09:35:12.499Z,23.55
2018-08-10T09:38:45.189Z,22.73
2018-08-10T09:41:13.670Z,22.48
2018-08-10T09:43:42.352Z,23.43
2018-08-10T09:46:11.600Z,23.98
2018-08-10T09:48:40.753Z,22.74
2018-08-10T09:51:11.313Z,22.68
2018-08-10T09:53:40.032Z,21.46
2018-08-10T09:56:09.435Z,20.96
2018-08-10T09:58:38.100Z,20.64
2018-08-10T10:01:10.857Z,20.56
2018-08-10T10:03:39.614Z,20.58
2018-08-10T10:06:08.366Z,20.79
2018-08-10T10:08:37.179Z,20.95
2018-08-10T10:11:06.392Z,21.82
2018-08-10T10:13:35.005Z,23.25
2018-08-10T10:16:03.502Z,24.44
2018-08-10T10:18:32.019Z,25.56
2018-08-10T10:21:01.682Z,25.12
2018-08-10T10:23:30.266Z,27.18
2018-08-10T10:25:59.814Z,25.81
2018-08-10T10:28:29.410Z,27.62
2018-08-10T10:30:58.265Z,26.12
2018-08-10T10:33:26.735Z,27.68
2018-08-10T10:35:56.127Z,28.83
2018-08-10T10:38:24.667Z,29.07
2018-08-10T10:40:54.145Z,28.51
2018-08-10T10:43:22.650Z,29.49
2018-08-10T10:45:51.442Z,26.32
2018-08-10T10:48:20.314Z,24.74
2018-08-10T10:50:50.033Z,24.24
2018-08-10T10:53:19.255Z,24.14
2018-08-10T10:55:50.145Z,24.42
2018-08-10T10:58:18.732Z,25.87
2018-08-10T11:00:48.357Z,25.28
2018-08-10T11:03:17.513Z,25.88
2018-08-10T11:05:46.461Z,24.04
2018-08-10T11:08:16.010Z,23.85
2018-08-10T11:10:46.982Z,23.40
2018-08-10T11:13:15.721Z,23.12
2018-08-10T11:15:44.298Z,22.63
2018-08-10T11:18:12.985Z,22.40
2018-08-10T11:20:41.883Z,23.72
2018-08-10T11:23:10.539Z,23.70
2018-08-10T11:25:39.221Z,25.37
2018-08-10T11:28:07.878Z,25.21
2018-08-10T11:30:38.045Z,25.17
2018-08-10T11:33:06.898Z,26.43
2018-08-10T11:35:36.565Z,25.00
2018-08-10T11:38:05.678Z,25.55
2018-08-10T11:40:34.615Z,25.79
2018-08-10T11:43:04.292Z,24.94
2018-08-10T11:45:33.237Z,24.85
2018-08-10T11:48:02.115Z,24.90
2018-08-10T11:50:31.433Z,24.12
2018-08-10T11:53:01.559Z,25.04
2018-08-10T11:55:30.737Z,25.81
2018-08-10T11:58:00.740Z,25.77
2018-08-10T12:00:29.352Z,25.50
2018-08-10T12:02:57.909Z,25.57
2018-08-10T12:05:26.438Z,26.84
2018-08-10T12:07:55.207Z,27.86
2018-08-10T12:10:24.374Z,26.60
2018-08-10T12:12:52.931Z,27.48
2018-08-10T12:15:21.597Z,28.06
2018-08-10T12:17:51.087Z,26.70
2018-08-10T12:20:19.765Z,26.37
2018-08-10T12:22:48.219Z,27.94
2018-08-10T12:25:17.881Z,25.98
2018-08-10T12:27:46.351Z,25.28
2018-08-10T12:30:17.815Z,25.25
2018-08-10T12:32:46.551Z,25.09
2018-08-10T12:35:15.664Z,26.35
2018-08-10T12:37:44.886Z,24.75
2018-08-10T12:40:18.457Z,23.64
2018-08-10T12:42:47.532Z,24.33
2018-08-10T12:45:16.444Z,25.00
2018-08-10T12:47:45.163Z,25.24
2018-08-10T12:50:14.230Z,25.63
2018-08-10T12:52:43.194Z,24.56
2018-08-10T12:55:18.525Z,23.86
2018-08-10T12:57:47.067Z,23.96
2018-08-10T13:00:16.699Z,23.76
2018-08-10T13:02:46.575Z,23.44
2018-08-10T13:05:15.809Z,23.63
2018-08-10T13:07:44.553Z,22.92
2018-08-10T13:10:13.892Z,22.95
2018-08-10T13:12:42.393Z,23.12
2018-08-10T13:15:12.789Z,23.72
2018-08-10T13:17:42.070Z,24.83
2018-08-10T13:20:12.645Z,25.14
2018-08-10T13:22:42.372Z,26.46
2018-08-10T13:25:11.291Z,27.02
2018-08-10T13:27:40.779Z,27.16
2018-08-10T13:30:10.997Z,25.83
2018-08-10T13:32:40.523Z,24.75
2018-08-10T13:35:09.037Z,26.06
2018-08-10T13:37:37.597Z,27.23
2018-08-10T13:40:06.096Z,26.54
2018-08-10T13:42:34.691Z,26.83
2018-08-10T13:45:03.329Z,26.50
2018-08-10T13:47:31.800Z,25.65
2018-08-10T13:50:01.265Z,25.15
2018-08-10T13:52:29.776Z,24.60
2018-08-10T13:54:58.568Z,24.70
2018-08-10T13:57:27.727Z,24.56
2018-08-10T13:59:56.514Z,25.28
2018-08-10T14:02:25.059Z,25.98
2018-08-10T14:04:54.592Z,25.82
2018-08-10T14:07:23.204Z,25.53
2018-08-10T14:09:51.631Z,24.74
2018-08-10T14:12:20.151Z,24.97
2018-08-10T14:14:48.816Z,24.43
2018-08-10T14:17:17.321Z,24.54
2018-08-10T14:19:45.767Z,24.64
2018-08-10T14:22:14.996Z,24.03
2018-08-10T14:24:43.679Z,24.20
2018-08-10T14:27:12.771Z,24.47
2018-08-10T14:29:41.276Z,24.60
2018-08-10T14:32:10.219Z,24.52
2018-08-10T14:34:39.352Z,25.06
2018-08-10T14:37:07.972Z,24.61
2018-08-10T14:39:36.465Z,24.72
2018-08-10T14:42:04.995Z,25.19
2018-08-10T14:44:33.433Z,25.70
2018-08-10T14:47:02.066Z,25.35
2018-08-10T14:49:31.039Z,24.88
2018-08-10T14:52:00.193Z,24.85
2018-08-10T14:54:29.426Z,24.83
2018-08-10T14:56:57.899Z,24.48
2018-08-10T14:59:26.404Z,24.44
2018-08-10T15:01:55.059Z,25.17
2018-08-10T15:04:24.227Z,24.41
2018-08-10T15:06:52.768Z,24.00
2018-08-10T15:09:21.254Z,23.98
2018-08-10T15:11:49.747Z,24.04
2018-08-10T15:14:18.199Z,24.36
2018-08-10T15:16:46.700Z,24.05
2018-08-10T15:19:15.401Z,24.45
2018-08-10T15:21:43.846Z,24.46
2018-08-10T15:24:12.288Z,24.46
2018-08-10T15:26:41.390Z,24.41
2018-08-10T15:29:10.296Z,23.83
2018-08-10T15:31:38.938Z,23.78
2018-08-10T15:34:07.484Z,23.63
2018-08-10T15:36:36.502Z,23.74
2018-08-10T15:39:08.004Z,24.04
2018-08-10T15:41:36.502Z,24.48
2018-08-10T15:44:05.236Z,24.51
2018-08-10T15:46:33.681Z,24.45
2018-08-10T15:49:02.209Z,24.17
2018-08-10T15:51:30.780Z,24.18
2018-08-10T15:53:59.268Z,24.24
2018-08-10T15:56:27.723Z,23.66
2018-08-10T15:58:56.192Z,23.58
2018-08-10T16:01:24.769Z,23.63
2018-08-10T16:03:53.319Z,23.47
2018-08-10T16:06:21.792Z,23.34
2018-08-10T16:08:50.358Z,23.64
2018-08-10T16:11:19.011Z,23.44
2018-08-10T16:13:48.881Z,23.58
2018-08-10T16:16:17.438Z,23.39
2018-08-10T16:18:46.232Z,23.30
2018-08-10T16:21:14.884Z,23.35
2018-08-10T16:23:43.455Z,23.30
2018-08-10T16:26:12.748Z,23.60
2018-08-10T16:28:41.329Z,24.33
2018-08-10T16:31:09.781Z,24.16
2018-08-10T16:33:38.240Z,24.25
2018-08-10T16:36:06.702Z,24.61
2018-08-10T16:38:35.219Z,24.84
2018-08-10T16:41:03.816Z,24.46
2018-08-10T16:43:32.451Z,24.10
2018-08-10T16:46:00.919Z,23.76
2018-08-10T16:48:29.428Z,23.60
2018-08-10T16:50:58.155Z,23.65
2018-08-10T16:53:27.411Z,23.79
2018-08-10T16:55:56.483Z,23.52
2018-08-10T16:58:25.227Z,23.72
2018-08-10T17:00:54.515Z,23.50
2018-08-10T17:03:23.240Z,23.61
2018-08-10T17:05:52.513Z,23.22
2018-08-10T17:08:21.098Z,23.37
2018-08-10T17:10:49.959Z,23.32
2018-08-10T17:13:20.276Z,23.13
2018-08-10T17:15:49.900Z,22.85
2018-08-10T17:18:19.079Z,22.77
2018-08-10T17:20:47.528Z,22.72
2018-08-10T17:23:16.552Z,22.59
2018-08-10T17:25:45.021Z,22.31
2018-08-10T17:28:13.594Z,22.19
2018-08-10T17:30:42.337Z,22.12
2018-08-10T17:33:10.867Z,22.30
2018-08-10T17:35:39.285Z,22.27
2018-08-10T17:38:07.884Z,22.33
2018-08-10T17:40:36.480Z,22.16
2018-08-10T17:43:05.368Z,22.13
2018-08-10T17:45:33.923Z,22.22
2018-08-10T17:48:03.019Z,22.25
2018-08-10T17:50:31.715Z,22.03
2018-08-10T17:53:00.576Z,22.19
2018-08-10T17:55:30.861Z,22.15
2018-08-10T17:58:01.517Z,21.96
2018-08-10T18:00:30.028Z,21.97
2018-08-10T18:02:58.477Z,21.83
2018-08-10T18:05:26.984Z,21.94
2018-08-10T18:07:55.525Z,21.88
2018-08-10T18:10:24.124Z,21.74
2018-08-10T18:12:53.531Z,21.65
2018-08-10T18:15:23.126Z,21.58
2018-08-10T18:17:52.283Z,21.51
2018-08-10T18:20:23.014Z,21.34
2018-08-10T18:22:54.131Z,21.41
2018-08-10T18:25:23.357Z,21.28
2018-08-10T18:27:52.326Z,21.16
2018-08-10T18:30:23.147Z,21.20
2018-08-10T18:32:51.686Z,21.21
2018-08-10T18:35:20.172Z,21.02
2018-08-10T18:37:49.331Z,21.04
2018-08-10T18:40:18.854Z,20.73
2018-08-10T18:42:48.543Z,20.74
2018-08-10T18:45:19.789Z,20.67
2018-08-10T18:47:49.038Z,20.59
2018-08-10T18:50:18.669Z,20.52
2018-08-10T18:52:47.538Z,20.32
2018-08-10T18:55:21.343Z,20.25
2018-08-10T18:57:50.292Z,20.03
2018-08-10T19:00:22.342Z,19.88
2018-08-10T19:02:51.068Z,19.87
2018-08-10T19:05:20.236Z,19.87
2018-08-10T19:07:49.329Z,19.70
2018-08-10T19:10:21.396Z,19.42
2018-08-10T19:12:50.217Z,19.38
2018-08-10T19:15:20.522Z,19.37
2018-08-10T19:17:50.999Z,19.33
2018-08-10T19:20:20.779Z,18.99
2018-08-10T19:22:49.866Z,18.87
2018-08-10T19:25:18.940Z,19.03
2018-08-10T19:27:47.416Z,19.05
2018-08-10T19:30:24.358Z,19.06
2018-08-10T19:32:53.133Z,19.01
2018-08-10T19:35:22.118Z,18.92
2018-08-10T19:37:51.685Z,18.85
2018-08-10T19:40:21.249Z,18.72
2018-08-10T19:42:49.760Z,18.61
2018-08-10T19:45:18.599Z,18.45
2018-08-10T19:47:47.796Z,18.34
2018-08-10T19:50:17.563Z,18.28
2018-08-10T19:52:46.148Z,18.38
2018-08-10T19:55:15.633Z,18.38
2018-08-10T19:57:44.160Z,18.30
2018-08-10T20:00:15.340Z,18.19
2018-08-10T20:02:45.603Z,18.11
2018-08-10T20:05:14.011Z,17.95
2018-08-10T20:07:43.347Z,17.90
2018-08-10T20:10:13.131Z,17.75
2018-08-10T20:12:41.740Z,17.72
2018-08-10T20:15:13.901Z,17.66
2018-08-10T20:17:43.767Z,17.63
2018-08-10T20:20:15.902Z,17.51
2018-08-10T20:22:45.506Z,17.44
2018-08-10T20:25:14.740Z,17.38
2018-08-10T20:27:43.222Z,17.24
2018-08-10T20:30:14.261Z,17.21
2018-08-10T20:32:45.165Z,17.14
2018-08-10T20:35:15.316Z,17.14
2018-08-10T20:37:45.843Z,17.10
2018-08-10T20:40:18.243Z,17.05
2018-08-10T20:42:47.399Z,16.91
2018-08-10T20:45:17.103Z,16.87
2018-08-10T20:47:46.968Z,16.92
2018-08-10T20:50:20.183Z,16.92
2018-08-10T20:52:49.485Z,16.94
2018-08-10T20:55:18.776Z,16.92
2018-08-10T20:57:47.837Z,16.89
2018-08-10T21:00:17.473Z,16.88
2018-08-10T21:02:46.634Z,16.85
2018-08-10T21:05:17.202Z,16.88
2018-08-10T21:07:45.957Z,16.86
2018-08-10T21:10:17.412Z,16.78
2018-08-10T21:12:46.599Z,16.80
2018-08-10T21:15:16.190Z,16.73
2018-08-10T21:17:45.490Z,16.73
2018-08-10T21:20:15.956Z,16.69
2018-08-10T21:22:44.478Z,16.53
2018-08-10T21:25:14.371Z,16.55
2018-08-10T21:27:43.432Z,16.56
2018-08-10T21:30:18.360Z,16.47
2018-08-10T21:32:48.143Z,16.52
2018-08-10T21:35:17.839Z,16.44
2018-08-10T21:37:46.356Z,16.37
2018-08-10T21:40:15.900Z,16.45
2018-08-10T21:42:44.547Z,16.40
2018-08-10T21:45:13.701Z,16.33
2018-08-10T21:47:42.158Z,16.25
2018-08-10T21:50:14.480Z,16.11
2018-08-10T21:52:43.701Z,16.13
2018-08-10T21:55:13.168Z,16.04
2018-08-10T21:57:41.891Z,16.01
2018-08-10T22:00:41.395Z,15.91
2018-08-10T22:03:11.723Z,15.76
2018-08-10T22:05:40.773Z,15.73
2018-08-10T22:08:09.259Z,15.65
2018-08-10T22:10:37.758Z,15.63
2018-08-10T22:13:06.652Z,15.61
2018-08-10T22:15:40.911Z,15.61
2018-08-10T22:18:14.784Z,15.45
2018-08-10T22:20:43.277Z,15.50
2018-08-10T22:23:12.471Z,15.49
2018-08-10T22:25:40.982Z,15.39
2018-08-10T22:28:09.499Z,15.26
2018-08-10T22:30:38.055Z,15.22
2018-08-10T22:33:08.110Z,15.17
2018-08-10T22:35:36.537Z,15.15
2018-08-10T22:38:05.067Z,15.09
2018-08-10T22:40:35.440Z,15.04
2018-08-10T22:43:03.981Z,14.96
2018-08-10T22:45:32.767Z,14.93
2018-08-10T22:48:01.339Z,14.83
2018-08-10T22:50:30.587Z,14.81
2018-08-10T22:52:59.170Z,14.75
2018-08-10T22:55:27.706Z,14.71
2018-08-10T22:57:57.103Z,14.63
2018-08-10T23:00:26.691Z,14.57
2018-08-10T23:02:55.214Z,14.50
2018-08-10T23:05:24.496Z,14.46
2018-08-10T23:07:53.787Z,14.44
2018-08-10T23:10:22.797Z,14.39
2018-08-10T23:12:51.749Z,14.25
2018-08-10T23:15:20.536Z,14.20
2018-08-10T23:17:49.033Z,14.12
2018-08-10T23:20:17.596Z,14.15
2018-08-10T23:22:46.741Z,14.07
2018-08-10T23:25:15.361Z,14.00
2018-08-10T23:27:46.156Z,14.09
2018-08-10T23:30:17.046Z,14.02
2018-08-10T23:32:47.295Z,13.91
2018-08-10T23:35:15.786Z,13.86
2018-08-10T23:37:44.329Z,13.81
2018-08-10T23:40:15.542Z,13.73
2018-08-10T23:42:45.321Z,13.73
2018-08-10T23:45:15.074Z,13.69
2018-08-10T23:47:45.453Z,13.62
2018-08-10T23:50:15.649Z,13.68
2018-08-10T23:52:45.309Z,13.68
2018-08-10T23:55:15.894Z,13.74
2018-08-10T23:57:45.831Z,13.80
